Time;durP1;ratioP1;P1;durP2;ratioP2;P2;SDS_P1;SDS_P2;PMS_P1;PMS_P2;Temp;Humidity;BMP_temperature;BMP_pressure;BME280_temperature;BME280_humidity;BME280_pressure;Samples;Min_cycle;Max_cycle;Signal;HPM_P1;HPM_P2
2021/04/05 00:00:21;;;;;;;22.60;8.80;;;;;;;7.57;85.95;99900.84;4967012;28;20081;-76
2021/04/05 00:02:46;;;;;;;22.13;9.00;;;;;;;7.60;86.09;99895.56;4967322;28;20455;-71
2021/04/05 00:05:16;;;;;;;27.33;9.43;;;;;;;7.78;85.29;99890.56;4977581;28;20039;-75
2021/04/05 00:07:44;;;;;;;23.48;8.82;;;;;;;7.80;85.10;99877.56;4970262;28;20035;-74
2021/04/05 00:10:11;;;;;;;22.35;8.55;;;;;;;7.69;85.23;99861.28;4971688;28;20034;-74
2021/04/05 00:12:37;;;;;;;24.23;10.13;;;;;;;7.73;85.42;99866.69;4971278;28;20023;-76
2021/04/05 00:15:05;;;;;;;20.88;8.73;;;;;;;7.60;85.54;99847.34;4970960;28;20069;-76
2021/04/05 00:17:31;;;;;;;23.02;9.23;;;;;;;7.85;85.05;99837.84;4971261;28;20094;-75
2021/04/05 00:19:57;;;;;;;22.50;9.05;;;;;;;7.72;85.08;99830.34;4964808;28;20125;-75
2021/04/05 00:22:22;;;;;;;26.13;9.73;;;;;;;7.76;85.32;99823.88;4965385;28;20042;-77
2021/04/05 00:24:47;;;;;;;22.85;9.27;;;;;;;7.63;86.27;99821.72;4970737;28;20035;-75
2021/04/05 00:27:13;;;;;;;23.60;9.63;;;;;;;7.53;86.44;99808.94;4971129;28;20494;-75
2021/04/05 00:29:38;;;;;;;22.95;10.32;;;;;;;7.64;86.77;99807.22;4968197;28;20105;-75
2021/04/05 00:32:05;;;;;;;27.65;10.43;;;;;;;7.62;86.22;99794.19;4967710;28;20031;-74
2021/04/05 00:34:30;;;;;;;34.63;11.63;;;;;;;7.53;86.40;99792.88;4964786;28;20391;-77
2021/04/05 00:36:56;;;;;;;28.88;10.30;;;;;;;7.68;85.87;99781.25;4971219;28;20115;-77
2021/04/05 00:39:21;;;;;;;28.80;11.07;;;;;;;7.54;86.65;99754.22;4970939;28;20046;-75
2021/04/05 00:41:47;;;;;;;26.58;11.23;;;;;;;7.58;86.41;99742.44;4962110;28;20039;-74
2021/04/05 00:44:13;;;;;;;22.27;11.15;;;;;;;7.68;86.48;99741.06;4971155;28;20070;-75
2021/04/05 00:46:38;;;;;;;26.50;11.15;;;;;;;7.83;84.91;99734.81;4968227;28;20039;-75
2021/04/05 00:49:05;;;;;;;25.45;11.05;;;;;;;7.73;85.24;99725.47;4969695;28;20030;-75
2021/04/05 00:51:31;;;;;;;24.90;11.00;;;;;;;7.76;85.45;99718.63;4985202;28;20038;-75
2021/04/05 00:53:58;;;;;;;30.42;12.35;;;;;;;7.61;86.51;99703.44;4971120;28;20047;-71
2021/04/05 00:56:26;;;;;;;28.50;12.45;;;;;;;7.55;86.58;99689.56;4962227;28;20022;-74
2021/04/05 00:58:53;;;;;;;26.95;12.18;;;;;;;7.79;85.78;99691.88;4969432;28;20534;-76
2021/04/05 01:01:25;;;;;;;28.45;12.00;;;;;;;7.87;85.03;99688.19;4965470;28;20074;-75
2021/04/05 01:03:51;;;;;;;31.58;13.05;;;;;;;7.85;85.41;99686.97;4964551;28;20038;-75
2021/04/05 01:06:30;;;;;;;29.38;12.73;;;;;;;7.83;85.06;99679.31;4965194;28;20034;-75
2021/04/05 01:08:56;;;;;;;35.78;13.15;;;;;;;7.75;85.10;99671.50;4969599;28;20400;-73
2021/04/05 01:11:26;;;;;;;31.65;13.27;;;;;;;7.84;84.86;99669.38;4967935;28;20046;-74
2021/04/05 01:13:53;;;;;;;31.67;14.05;;;;;;;7.87;85.03;99665.97;4970301;28;20693;-74
2021/04/05 01:16:19;;;;;;;34.15;14.82;;;;;;;7.99;83.86;99631.66;4971869;28;20093;-73
2021/04/05 01:18:44;;;;;;;30.77;13.65;;;;;;;7.87;85.01;99633.81;4972244;28;20111;-76
2021/04/05 01:21:10;;;;;;;33.88;14.25;;;;;;;7.94;84.28;99626.63;4972666;28;20496;-73
2021/04/05 01:23:36;;;;;;;32.17;13.52;;;;;;;7.94;84.40;99639.25;4975741;28;20039;-73
2021/04/05 01:26:02;;;;;;;31.20;13.55;;;;;;;8.03;84.27;99612.97;4975548;28;20117;-73
2021/04/05 01:28:28;;;;;;;31.55;13.52;;;;;;;7.95;84.31;99622.06;4974897;28;20693;-73
2021/04/05 01:30:58;;;;;;;32.25;14.00;;;;;;;7.90;84.48;99616.97;4973949;28;20031;-74
2021/04/05 01:33:33;;;;;;;29.95;13.68;;;;;;;7.98;84.16;99608.69;4978321;28;20122;-76
2021/04/05 01:36:02;;;;;;;36.53;15.18;;;;;;;7.91;84.77;99599.78;4974655;28;20480;-76
2021/04/05 01:38:34;;;;;;;29.60;13.52;;;;;;;7.91;84.97;99610.50;4976443;28;20030;-76
2021/04/05 01:41:06;;;;;;;27.85;14.18;;;;;;;7.90;85.22;99598.22;4974804;28;20117;-76
2021/04/05 01:43:32;;;;;;;31.27;14.15;;;;;;;7.91;85.41;99597.09;4974893;28;20030;-76
2021/04/05 01:45:59;;;;;;;30.35;13.82;;;;;;;8.04;85.11;99575.06;4964598;28;20035;-75
2021/04/05 01:48:27;;;;;;;32.38;14.35;;;;;;;8.08;84.85;99567.84;4965945;28;20031;-74
2021/04/05 01:51:07;;;;;;;33.17;14.00;;;;;;;7.97;85.10;99556.22;4973825;28;20384;-75
2021/04/05 01:53:35;;;;;;;31.40;13.75;;;;;;;7.95;85.65;99536.28;4974119;28;20622;-75
2021/04/05 01:56:03;;;;;;;34.30;14.60;;;;;;;7.88;85.89;99542.31;4959532;28;20035;-76
2021/04/05 01:58:30;;;;;;;27.20;12.65;;;;;;;7.95;85.46;99530.91;4973651;28;20451;-73
2021/04/05 02:01:16;;;;;;;25.73;13.75;;;;;;;8.04;84.98;99524.13;4974439;28;20070;-75
2021/04/05 02:03:42;;;;;;;34.85;13.50;;;;;;;8.01;85.75;99516.06;4911170;29;20055;-75
2021/04/05 02:06:23;;;;;;;31.48;13.75;;;;;;;7.89;85.78;99510.94;4912977;29;20071;-75
2021/04/05 02:08:48;;;;;;;30.85;12.73;;;;;;;7.82;86.67;99500.13;4913345;29;20167;-76
2021/04/05 02:11:16;;;;;;;31.90;14.38;;;;;;;7.93;86.29;99485.72;4904948;29;20055;-74
2021/04/05 02:13:46;;;;;;;33.22;13.40;;;;;;;8.10;85.55;99462.91;4907618;29;20044;-72
2021/04/05 02:16:19;;;;;;;33.72;14.18;;;;;;;8.03;85.43;99471.66;4906177;29;20043;-74
2021/04/05 02:18:45;;;;;;;28.67;14.10;;;;;;;8.07;85.63;99464.41;4913187;29;20118;-75
2021/04/05 02:21:12;;;;;;;32.58;13.73;;;;;;;8.03;86.08;99454.81;4913015;29;20044;-75
2021/04/05 02:23:39;;;;;;;31.20;13.70;;;;;;;8.04;86.18;99443.72;4912173;29;20050;-74
2021/04/05 02:26:10;;;;;;;28.55;14.07;;;;;;;8.01;86.57;99449.03;4905437;29;20143;-75
2021/04/05 02:28:42;;;;;;;28.35;13.18;;;;;;;8.04;86.55;99429.53;4913182;29;20805;-75
2021/04/05 02:31:13;;;;;;;24.63;12.68;;;;;;;8.05;86.63;99423.03;4910291;29;20266;-76
2021/04/05 02:33:43;;;;;;;28.75;13.15;;;;;;;8.12;86.80;99415.06;4911900;29;20048;-75
2021/04/05 02:36:11;;;;;;;27.33;12.02;;;;;;;8.07;87.03;99410.78;4911451;29;20406;-76
2021/04/05 02:38:38;;;;;;;31.35;13.73;;;;;;;8.19;86.88;99402.50;4895431;29;20032;-75
2021/04/05 02:41:06;;;;;;;29.67;12.40;;;;;;;7.90;87.79;99389.16;4944632;28;20142;-76
2021/04/05 02:43:33;;;;;;;28.95;13.18;;;;;;;8.02;88.14;99378.97;4973139;28;20031;-76
2021/04/05 02:45:59;;;;;;;26.38;12.45;;;;;;;8.16;87.78;99373.75;4964066;28;20038;-74
2021/04/05 02:48:27;;;;;;;26.55;12.23;;;;;;;8.23;87.36;99369.59;4966714;28;20023;-76
2021/04/05 02:50:53;;;;;;;39.22;13.60;;;;;;;8.22;87.45;99363.44;4973723;28;20043;-76
2021/04/05 02:53:19;;;;;;;27.92;13.23;;;;;;;8.20;87.47;99353.09;4969001;28;20034;-75
2021/04/05 02:55:45;;;;;;;29.63;12.30;;;;;;;8.19;88.13;99348.09;4964311;28;20035;-75
2021/04/05 02:58:12;;;;;;;34.33;12.68;;;;;;;8.33;87.71;99345.56;4972944;28;20508;-76
2021/04/05 03:00:38;;;;;;;30.27;12.77;;;;;;;8.19;88.84;99335.47;4970805;28;20109;-72
2021/04/05 03:03:05;;;;;;;29.90;12.52;;;;;;;8.20;89.36;99337.00;4965937;28;20035;-74
2021/04/05 03:05:31;;;;;;;31.25;11.85;;;;;;;8.13;89.50;99315.50;4972190;28;20037;-73
2021/04/05 03:07:57;;;;;;;37.35;13.20;;;;;;;8.09;90.25;99322.72;4973202;28;20031;-73
2021/04/05 03:10:27;;;;;;;30.83;12.65;;;;;;;8.22;90.02;99323.22;4972126;28;20476;-74
2021/04/05 03:12:57;;;;;;;33.35;12.50;;;;;;;8.16;90.23;99309.41;4973520;28;20046;-73
2021/04/05 03:15:25;;;;;;;35.55;13.15;;;;;;;8.23;89.63;99306.75;4969994;28;20288;-74
2021/04/05 03:17:55;;;;;;;29.55;12.35;;;;;;;8.21;90.13;99300.22;4970277;28;20038;-74
2021/04/05 03:20:23;;;;;;;30.60;12.65;;;;;;;8.21;89.99;99281.44;4973203;28;20427;-73
2021/04/05 03:22:49;;;;;;;36.55;13.68;;;;;;;8.25;90.46;99284.97;4988585;28;20039;-74
2021/04/05 03:25:20;;;;;;;30.75;12.38;;;;;;;8.14;90.75;99279.50;4964144;28;20034;-73
2021/04/05 03:27:47;;;;;;;28.13;11.82;;;;;;;8.18;91.35;99274.94;4973037;28;20118;-73
2021/04/05 03:30:20;;;;;;;29.17;12.20;;;;;;;8.13;91.56;99261.09;4972035;28;20033;-74
2021/04/05 03:32:47;;;;;;;31.17;12.27;;;;;;;8.22;92.42;99250.84;4968546;28;20105;-73
2021/04/05 03:35:19;;;;;;;37.28;12.27;;;;;;;8.37;91.89;99254.38;4969862;28;20038;-73
2021/04/05 03:37:48;;;;;;;27.45;12.43;;;;;;;8.40;92.90;99264.38;4979769;28;20034;-73
2021/04/05 03:40:14;;;;;;;28.77;12.45;;;;;;;8.35;94.04;99238.69;4972681;28;20031;-74
2021/04/05 03:42:52;;;;;;;34.90;12.88;;;;;;;8.30;95.25;99230.22;4972441;28;20046;-73
2021/04/05 03:45:27;;;;;;;28.70;13.52;;;;;;;8.24;96.39;99245.88;4973322;28;20038;-73
2021/04/05 03:48:05;;;;;;;34.08;13.30;;;;;;;8.21;97.77;99228.59;4969707;28;20403;-74
2021/04/05 03:51:11;;;;;;;30.17;13.40;;;;;;;8.13;98.83;99204.78;4973218;28;20027;-73
2021/04/05 03:53:44;;;;;;;28.05;13.13;;;;;;;7.95;100.00;99207.38;4951207;28;20043;-74
2021/04/05 03:56:30;;;;;;;32.08;13.70;;;;;;;8.06;100.00;99212.81;4974359;28;20062;-73
2021/04/05 03:59:04;;;;;;;32.13;14.48;;;;;;;8.06;100.00;99204.75;4969048;28;20027;-73
2021/04/05 04:01:31;;;;;;;30.75;14.98;;;;;;;8.06;100.00;99204.75;4969049;28;20721;-74
2021/04/05 04:04:10;;;;;;;27.33;13.27;;;;;;;7.97;100.00;99193.59;4958076;28;20448;-74
2021/04/05 04:06:48;;;;;;;33.55;13.82;;;;;;;7.85;100.00;99178.59;4971179;28;20132;-74
2021/04/05 04:09:17;;;;;;;32.78;13.88;;;;;;;8.01;100.00;99187.09;4963266;28;20024;-74
2021/04/05 04:11:47;;;;;;;36.35;14.57;;;;;;;8.00;100.00;99187.47;4969087;28;20125;-73
2021/04/05 04:14:16;;;;;;;35.92;14.70;;;;;;;8.05;100.00;99177.19;4968915;28;20514;-74
2021/04/05 04:16:43;;;;;;;32.40;14.85;;;;;;;8.02;100.00;99177.94;4972738;28;20038;-73
2021/04/05 04:19:10;;;;;;;28.83;13.68;;;;;;;7.89;100.00;99181.28;4984553;28;20023;-73
2021/04/05 04:21:36;;;;;;;34.53;13.95;;;;;;;7.92;100.00;99167.13;4969938;28;20443;-74
2021/04/05 04:24:02;;;;;;;40.53;15.35;;;;;;;7.96;100.00;99170.59;4972212;28;20101;-73
2021/04/05 04:26:32;;;;;;;29.77;13.57;;;;;;;8.00;100.00;99182.13;4966112;28;20069;-74
2021/04/05 04:28:57;;;;;;;30.92;14.40;;;;;;;7.97;100.00;99185.56;4971604;28;20462;-74
2021/04/05 04:31:23;;;;;;;37.13;14.65;;;;;;;7.81;100.00;99177.78;4972084;28;20118;-74
2021/04/05 04:33:48;;;;;;;29.35;14.93;;;;;;;7.91;100.00;99182.47;4972201;28;20049;-74
2021/04/05 04:36:22;;;;;;;32.17;14.70;;;;;;;8.02;100.00;99204.75;4971928;28;20062;-74
2021/04/05 04:38:49;;;;;;;27.83;13.57;;;;;;;7.87;100.00;99202.34;4974401;28;20472;-74
2021/04/05 04:41:29;;;;;;;15.38;7.72;;;;;;;7.93;100.00;99219.59;4982576;28;20035;-74
2021/04/05 04:44:01;;;;;;;6.28;3.03;;;;;;;7.90;100.00;99212.28;4972181;28;20506;-74
2021/04/05 04:46:26;;;;;;;2.30;1.20;;;;;;;7.74;100.00;99219.84;4967130;28;20063;-75
2021/04/05 04:49:04;;;;;;;1.30;0.90;;;;;;;7.49;100.00;99230.31;4971444;28;20062;-73
2021/04/05 04:51:30;;;;;;;3.35;1.30;;;;;;;7.30;100.00;99217.91;4970007;28;20026;-73
2021/04/05 04:53:59;;;;;;;3.53;1.15;;;;;;;7.20;100.00;99229.28;4968188;28;20038;-74
2021/04/05 04:56:25;;;;;;;1.15;0.60;;;;;;;7.21;100.00;99227.38;4971986;28;20039;-74
2021/04/05 04:58:51;;;;;;;2.00;0.90;;;;;;;7.19;100.00;99221.63;4965758;28;20038;-74
2021/04/05 05:01:18;;;;;;;0.95;0.57;;;;;;;7.12;100.00;99216.22;4970333;28;20496;-74
2021/04/05 05:03:55;;;;;;;1.83;0.70;;;;;;;7.05;100.00;99211.53;4970749;28;20078;-75
2021/04/05 05:06:22;;;;;;;0.95;0.50;;;;;;;7.06;100.00;99207.75;4971552;28;20474;-73
2021/04/05 05:08:48;;;;;;;0.50;0.50;;;;;;;6.98;100.00;99206.13;4969985;28;20110;-74
2021/04/05 05:11:15;;;;;;;2.15;0.60;;;;;;;7.06;100.00;99205.06;4960787;28;20110;-74
2021/04/05 05:13:41;;;;;;;0.68;0.52;;;;;;;7.07;100.00;99209.28;4968559;28;20384;-74
2021/04/05 05:16:08;;;;;;;2.60;0.60;;;;;;;6.98;100.00;99214.16;4971713;28;20031;-73
2021/04/05 05:18:35;;;;;;;1.90;0.50;;;;;;;6.89;100.00;99210.97;4969685;28;20035;-73
2021/04/05 05:21:08;;;;;;;0.98;0.65;;;;;;;6.95;100.00;99220.22;4971402;28;20049;-73
2021/04/05 05:23:38;;;;;;;4.70;0.80;;;;;;;6.99;100.00;99218.34;4972025;28;20054;-73
2021/04/05 05:26:05;;;;;;;2.22;0.90;;;;;;;6.97;100.00;99225.97;4971529;28;20100;-73
2021/04/05 05:28:35;;;;;;;4.00;0.75;;;;;;;6.99;100.00;99221.03;4969631;28;20026;-74
2021/04/05 05:31:01;;;;;;;3.75;1.00;;;;;;;7.06;100.00;99223.03;4963781;28;20034;-73
2021/04/05 05:33:27;;;;;;;5.35;0.82;;;;;;;7.09;100.00;99228.41;4971352;28;20035;-73
2021/04/05 05:35:53;;;;;;;5.47;1.25;;;;;;;7.06;100.00;99228.38;4971451;28;20041;-74
2021/04/05 05:38:21;;;;;;;6.07;1.10;;;;;;;7.03;100.00;99213.03;4970338;28;20035;-74
2021/04/05 05:40:48;;;;;;;2.70;1.13;;;;;;;6.95;100.00;99225.56;4968587;28;20129;-73
2021/04/05 05:43:26;;;;;;;5.80;1.20;;;;;;;7.00;100.00;99217.25;4971382;28;20050;-73
2021/04/05 05:46:10;;;;;;;4.45;1.25;;;;;;;6.98;100.00;99224.88;4970067;28;20558;-74
2021/04/05 05:48:47;;;;;;;4.75;1.10;;;;;;;6.98;100.00;99235.56;4967542;28;20396;-73
2021/04/05 05:51:39;;;;;;;5.03;0.88;;;;;;;7.07;100.00;99236.03;4964814;28;20181;-74
2021/04/05 05:54:36;;;;;;;2.78;0.90;;;;;;;7.08;100.00;99226.84;4971169;28;20035;-74
2021/04/05 05:57:07;;;;;;;7.82;1.17;;;;;;;7.10;100.00;99250.59;4954956;28;20038;-74
2021/04/05 05:59:36;;;;;;;7.53;1.48;;;;;;;7.01;100.00;99248.19;4970227;28;20070;-73
2021/04/05 06:02:23;;;;;;;4.10;1.13;;;;;;;6.87;99.70;99266.75;4974565;28;20063;-74
2021/04/05 06:05:26;;;;;;;5.63;1.10;;;;;;;6.79;99.28;99259.81;4972175;28;20038;-73
2021/04/05 06:07:54;;;;;;;4.10;1.17;;;;;;;6.83;99.17;99265.19;4978731;28;20038;-74
2021/04/05 06:10:25;;;;;;;6.22;1.55;;;;;;;6.78;99.19;99266.28;4990381;28;20054;-74
2021/04/05 06:13:05;;;;;;;5.57;1.25;;;;;;;6.71;98.32;99270.75;4972922;28;20038;-73
2021/04/05 06:15:43;;;;;;;6.78;1.30;;;;;;;6.70;97.97;99278.00;4983101;28;20066;-73
2021/04/05 06:18:22;;;;;;;8.68;1.60;;;;;;;6.44;98.54;99279.94;4971842;28;20081;-73
2021/04/05 06:21:05;;;;;;;11.05;1.20;;;;;;;6.38;99.53;99282.16;4974850;28;20042;-73
2021/04/05 06:23:46;;;;;;;4.40;1.00;;;;;;;6.37;97.93;99257.31;4974816;28;20066;-73
2021/04/05 06:26:48;;;;;;;7.13;1.15;;;;;;;6.35;98.29;99266.81;4969574;28;20057;-74
2021/04/05 06:29:32;;;;;;;3.80;1.17;;;;;;;6.43;98.25;99265.06;4972876;28;20478;-73
2021/04/05 06:32:22;;;;;;;5.07;1.27;;;;;;;6.44;98.58;99255.88;4973456;28;20054;-73
2021/04/05 06:34:55;;;;;;;5.97;1.30;;;;;;;6.47;97.51;99261.28;4967521;28;20084;-73
2021/04/05 06:37:32;;;;;;;5.07;0.90;;;;;;;6.47;97.16;99263.94;4979617;28;20697;-74
2021/04/05 06:40:05;;;;;;;3.63;0.90;;;;;;;6.31;97.63;99280.16;4974375;28;20035;-73
2021/04/05 06:42:33;;;;;;;7.32;1.30;;;;;;;6.48;97.30;99286.13;4985206;28;20062;-74
2021/04/05 06:45:29;;;;;;;8.90;1.00;;;;;;;6.43;97.44;99299.81;4971532;28;20038;-74
2021/04/05 06:48:33;;;;;;;3.72;1.17;;;;;;;6.47;97.43;99297.94;4971843;28;20133;-74
2021/04/05 06:51:20;;;;;;;6.85;1.17;;;;;;;6.44;96.39;99287.97;4968224;28;20082;-73
2021/04/05 06:54:10;;;;;;;6.32;1.35;;;;;;;6.39;95.44;99297.06;4986170;28;20049;-73
2021/04/05 06:57:01;;;;;;;7.23;1.10;;;;;;;6.35;95.27;99288.22;4974080;28;20114;-74
2021/04/05 06:59:31;;;;;;;3.60;0.88;;;;;;;6.36;94.49;99287.88;4970086;28;20038;-74
2021/04/05 07:02:20;;;;;;;4.85;0.95;;;;;;;6.29;94.39;99292.34;4973547;28;20578;-75
2021/04/05 07:05:03;;;;;;;6.85;1.10;;;;;;;6.36;93.08;99295.13;4970653;28;20558;-74
2021/04/05 07:07:56;;;;;;;2.33;0.90;;;;;;;6.36;93.07;99303.91;4973478;28;20739;-73
2021/04/05 07:10:27;;;;;;;5.43;1.20;;;;;;;6.31;93.70;99300.75;4973451;28;20101;-73
2021/04/05 07:13:08;;;;;;;6.25;1.00;;;;;;;6.27;93.96;99316.75;4988486;28;20035;-74
2021/04/05 07:15:43;;;;;;;4.13;0.70;;;;;;;6.40;93.98;99303.97;4984532;28;20039;-74
2021/04/05 07:18:21;;;;;;;4.47;0.95;;;;;;;6.40;94.53;99293.25;4972424;28;20046;-73
2021/04/05 07:21:02;;;;;;;5.15;0.80;;;;;;;6.40;95.27;99298.63;4971100;28;20070;-74
2021/04/05 07:23:45;;;;;;;7.53;1.00;;;;;;;6.40;94.91;99295.94;4988576;28;20119;-74
2021/04/05 07:26:30;;;;;;;6.70;1.90;;;;;;;6.45;95.18;99295.63;4973385;28;20246;-74
2021/04/05 07:29:02;;;;;;;4.05;0.90;;;;;;;6.44;95.32;99282.63;4969633;28;20043;-74
2021/04/05 07:31:58;;;;;;;7.78;1.17;;;;;;;6.69;94.29;99279.16;4987363;28;20030;-74
2021/04/05 07:34:32;;;;;;;4.47;0.90;;;;;;;6.55;94.84;99278.19;4977381;28;20031;-73
2021/04/05 07:37:45;;;;;;;7.55;1.10;;;;;;;6.72;93.98;99275.75;4969304;28;20058;-76
2021/04/05 07:40:21;;;;;;;6.70;1.13;;;;;;;6.70;92.18;99291.38;4945186;28;20054;-73
2021/04/05 07:42:58;;;;;;;3.85;0.95;;;;;;;6.54;92.70;99298.81;4972493;28;20503;-73
2021/04/05 07:45:33;;;;;;;6.32;1.00;;;;;;;6.65;92.44;99310.44;4969890;28;20138;-73
2021/04/05 07:48:16;;;;;;;6.75;0.80;;;;;;;6.50;93.20;99300.69;4962917;28;20436;-75
2021/04/05 07:51:18;;;;;;;6.50;1.17;;;;;;;6.51;93.08;99312.91;4972876;28;20484;-74
2021/04/05 07:53:55;;;;;;;6.60;1.10;;;;;;;6.54;94.49;99309.53;4966394;28;20035;-74
2021/04/05 07:56:28;;;;;;;3.63;0.90;;;;;;;6.51;93.82;99312.13;4970515;28;20498;-74
2021/04/05 07:59:03;;;;;;;8.77;1.17;;;;;;;6.31;93.46;99296.19;4971494;28;20500;-74
2021/04/05 08:01:50;;;;;;;16.92;1.63;;;;;;;6.26;93.53;99315.22;4968253;28;20045;-74
2021/04/05 08:04:48;;;;;;;4.68;1.10;;;;;;;6.18;93.42;99313.56;4965889;28;20041;-74
2021/04/05 08:07:21;;;;;;;6.90;1.13;;;;;;;6.15;95.90;99321.53;4961399;28;20038;-74
2021/04/05 08:10:13;;;;;;;8.27;1.30;;;;;;;6.49;97.42;99323.19;4972288;28;20039;-74
2021/04/05 08:12:52;;;;;;;6.72;1.13;;;;;;;7.05;97.93;99321.28;4934500;28;20035;-73
2021/04/05 08:15:42;;;;;;;6.97;1.20;;;;;;;7.59;96.68;99314.63;4971642;28;20074;-75
2021/04/05 08:18:26;;;;;;;6.88;1.02;;;;;;;8.15;94.68;99304.38;4971060;28;20151;-75
2021/04/05 08:21:02;;;;;;;6.60;0.90;;;;;;;8.64;90.48;99296.72;4971878;28;20055;-74
2021/04/05 08:23:46;;;;;;;6.05;0.90;;;;;;;8.91;90.10;99306.06;4964602;28;20045;-74
2021/04/05 08:26:22;;;;;;;4.50;0.90;;;;;;;9.31;88.25;99310.44;4971746;28;20150;-74
2021/04/05 08:28:48;;;;;;;10.65;1.00;;;;;;;9.20;81.89;99344.53;4970106;28;20129;-75
2021/04/05 08:31:38;;;;;;;4.93;0.50;;;;;;;8.46;78.53;99332.63;4976794;28;20119;-74
2021/04/05 08:34:14;;;;;;;2.85;0.40;;;;;;;8.17;79.30;99350.38;4970347;28;20043;-74
2021/04/05 08:36:46;;;;;;;2.25;0.52;;;;;;;7.78;79.45;99354.63;4981656;28;20067;-73
2021/04/05 08:39:18;;;;;;;;;;;;;;;7.26;80.96;99356.31;4966828;28;20519;-75
2021/04/05 08:41:52;;;;;;;;;;;;;;;7.08;83.15;99349.97;4963976;28;19924;-74
2021/04/05 08:44:44;;;;;;;2.25;0.40;;;;;;;7.05;84.21;99357.97;4966902;28;19917;-73
2021/04/05 08:47:15;;;;;;;0.73;0.32;;;;;;;7.00;86.44;99358.28;4961156;28;20029;-76
2021/04/05 08:49:45;;;;;;;0.55;0.52;;;;;;;7.15;85.65;99392.13;4970028;28;20034;-74
2021/04/05 08:52:13;;;;;;;0.40;0.40;;;;;;;7.03;86.66;99384.31;4959817;28;20465;-74
2021/04/05 08:54:41;;;;;;;0.30;0.30;;;;;;;7.03;87.78;99400.38;4960637;28;20061;-75
2021/04/05 08:57:14;;;;;;;0.82;0.35;;;;;;;7.03;85.25;99403.81;4968603;28;20093;-77
2021/04/05 09:00:04;;;;;;;0.55;0.40;;;;;;;6.94;85.92;99408.69;4964145;28;20019;-74
2021/04/05 09:02:44;;;;;;;0.63;0.30;;;;;;;7.04;85.43;99408.06;4975363;28;20031;-74
2021/04/05 09:05:20;;;;;;;2.28;0.43;;;;;;;7.05;84.08;99422.97;5002291;22;20028;-70
2021/04/05 09:07:45;;;;;;;0.98;0.60;;;;;;;6.93;80.64;99444.59;4984624;28;20042;-71
2021/04/05 09:10:12;;;;;;;1.38;0.45;;;;;;;6.77;80.30;99457.34;5009544;28;20037;-72
2021/04/05 09:12:40;;;;;;;2.08;0.80;;;;;;;6.46;80.62;99465.63;5010370;28;20486;-71
2021/04/05 09:15:15;;;;;;;2.78;0.63;;;;;;;6.35;81.87;99480.69;5011020;28;20038;-71
2021/04/05 09:18:04;;;;;;;4.53;0.60;;;;;;;6.24;81.01;99480.50;5020117;28;20164;-71
2021/04/05 09:20:45;;;;;;;6.93;0.93;;;;;;;6.55;82.59;99484.88;5013604;28;20136;-71
2021/04/05 09:23:32;;;;;;;3.72;0.80;;;;;;;6.92;79.97;99488.53;5011466;28;20539;-70
2021/04/05 09:26:31;;;;;;;2.92;0.90;;;;;;;7.17;75.14;99478.19;5023161;28;20042;-72
2021/04/05 09:29:19;;;;;;;3.75;0.70;;;;;;;7.25;74.49;99477.94;5005205;28;20485;-71
2021/04/05 09:32:08;;;;;;;4.18;0.93;;;;;;;7.44;74.06;99473.59;5006004;28;20034;-72
2021/04/05 09:35:11;;;;;;;7.57;0.88;;;;;;;7.57;72.74;99472.25;5004764;28;20116;-72
2021/04/05 09:37:57;;;;;;;9.60;1.10;;;;;;;7.62;73.82;99471.94;4952911;28;20035;-71
2021/04/05 09:40:48;;;;;;;4.40;1.20;;;;;;;7.82;71.01;99473.34;5002810;28;20025;-71
2021/04/05 09:43:32;;;;;;;4.50;0.95;;;;;;;7.78;70.08;99467.91;5007253;28;20057;-69
2021/04/05 09:46:35;;;;;;;9.45;1.00;;;;;;;7.82;67.20;99468.72;5022846;28;20060;-72
2021/04/05 09:50:03;;;;;;;10.20;0.93;;;;;;;7.70;69.19;99476.25;5013481;28;20040;-72
2021/04/05 09:52:47;;;;;;;6.95;1.00;;;;;;;7.98;67.22;99473.88;4948270;28;20141;-71
2021/04/05 09:55:16;;;;;;;6.75;1.33;;;;;;;7.86;66.45;99474.13;4952871;28;20035;-70
2021/04/05 09:57:58;;;;;;;4.95;0.90;;;;;;;8.41;68.03;99467.84;4999614;28;20053;-71
2021/04/05 10:00:24;;;;;;;8.90;0.90;;;;;;;8.92;64.03;99465.97;5004616;28;20463;-70
2021/04/05 10:02:54;;;;;;;4.05;1.40;;;;;;;9.42;64.39;99455.56;5008801;28;20116;-71
2021/04/05 10:05:21;;;;;;;2.38;0.82;;;;;;;9.97;59.78;99465.00;5002596;28;20033;-71
2021/04/05 10:07:50;;;;;;;4.25;1.15;;;;;;;10.17;56.21;99447.41;4996694;28;20029;-71
2021/04/05 10:10:16;;;;;;;6.88;1.17;;;;;;;10.22;55.29;99454.34;5000646;28;20080;-72
2021/04/05 10:12:45;;;;;;;6.10;1.27;;;;;;;10.15;53.04;99455.09;5001346;28;20040;-69
2021/04/05 10:15:14;;;;;;;6.50;1.50;;;;;;;10.13;52.66;99462.78;4983306;28;20523;-70
2021/04/05 10:17:47;;;;;;;3.90;0.98;;;;;;;9.93;51.83;99453.47;5000100;28;20417;-71
2021/04/05 10:20:14;;;;;;;4.93;1.08;;;;;;;10.00;52.59;99464.25;5004078;28;20481;-72
2021/04/05 10:22:43;;;;;;;6.13;1.40;;;;;;;10.09;52.09;99461.97;5011175;28;20044;-72
2021/04/05 10:25:12;;;;;;;6.85;1.15;;;;;;;10.57;49.47;99444.38;5001027;28;20072;-72
2021/04/05 10:27:39;;;;;;;9.30;1.38;;;;;;;10.87;48.47;99447.47;5005088;28;20491;-72
2021/04/05 10:30:09;;;;;;;8.27;0.80;;;;;;;11.06;46.19;99448.19;5002429;28;20494;-73
2021/04/05 10:32:39;;;;;;;9.73;1.17;;;;;;;11.31;44.48;99436.22;4998349;28;20034;-72
2021/04/05 10:35:06;;;;;;;8.48;1.10;;;;;;;11.42;44.16;99450.44;4978100;28;20040;-72
2021/04/05 10:37:36;;;;;;;6.78;1.30;;;;;;;11.09;43.37;99463.63;4996624;28;20561;-72
2021/04/05 10:40:03;;;;;;;5.38;0.90;;;;;;;10.63;45.17;99459.00;4994426;28;20387;-72
2021/04/05 10:42:37;;;;;;;5.30;1.05;;;;;;;10.62;45.00;99462.09;4978574;28;20038;-73
2021/04/05 10:45:15;;;;;;;6.72;1.23;;;;;;;10.73;45.14;99463.63;4995286;28;20399;-71
2021/04/05 10:48:02;;;;;;;2.63;1.10;;;;;;;10.82;44.33;99445.16;4992049;28;20065;-71
2021/04/05 10:50:32;;;;;;;6.47;1.48;;;;;;;10.95;43.49;99453.63;4979264;28;20034;-73
2021/04/05 10:53:15;;;;;;;4.57;1.00;;;;;;;10.46;42.28;99453.59;4997895;28;20030;-73
2021/04/05 10:55:52;;;;;;;3.28;1.05;;;;;;;10.03;42.88;99458.09;4981682;28;20049;-73
2021/04/05 10:58:25;;;;;;;7.28;0.85;;;;;;;10.36;41.26;99449.75;4995312;28;20062;-72
2021/04/05 11:00:55;;;;;;;4.30;1.00;;;;;;;10.63;43.48;99450.16;5000101;28;20041;-72
2021/04/05 11:03:23;;;;;;;6.05;1.25;;;;;;;11.06;42.70;99450.91;4998130;28;20171;-73
2021/04/05 11:05:58;;;;;;;5.13;0.90;;;;;;;11.73;39.88;99454.19;4994733;28;20041;-73
2021/04/05 11:08:28;;;;;;;5.93;0.95;;;;;;;11.93;40.60;99468.78;4996307;28;20026;-72
2021/04/05 11:11:15;;;;;;;2.30;0.80;;;;;;;11.63;38.31;99479.28;5003366;28;20433;-72
2021/04/05 11:13:44;;;;;;;5.28;0.90;;;;;;;11.30;39.95;99469.75;4995818;28;20038;-72
2021/04/05 11:16:17;;;;;;;6.72;1.45;;;;;;;11.45;40.71;99479.31;4992093;28;20195;-73
2021/04/05 11:18:54;;;;;;;6.35;0.93;;;;;;;11.68;38.51;99484.28;4997913;28;20109;-72
2021/04/05 11:21:31;;;;;;;4.80;0.75;;;;;;;11.81;38.28;99473.84;4997993;28;20124;-72
2021/04/05 11:23:58;;;;;;;5.88;0.88;;;;;;;12.01;37.69;99494.56;4995154;28;20398;-72
2021/04/05 11:26:32;;;;;;;5.07;1.00;;;;;;;11.42;37.12;99487.44;5002540;28;20041;-72
2021/04/05 11:29:02;;;;;;;4.47;0.80;;;;;;;11.67;37.41;99488.16;4996110;28;20037;-73
2021/04/05 11:31:35;;;;;;;6.82;0.98;;;;;;;11.74;37.42;99493.50;4997857;28;20026;-73
2021/04/05 11:34:21;;;;;;;4.82;0.90;;;;;;;11.91;38.15;99492.69;5004451;28;20041;-72
2021/04/05 11:37:11;;;;;;;7.72;1.08;;;;;;;11.77;37.05;99498.88;4950321;28;20039;-72
2021/04/05 11:39:39;;;;;;;4.15;0.73;;;;;;;11.65;38.46;99485.03;4949733;28;20036;-73
2021/04/05 11:42:06;;;;;;;5.28;0.80;;;;;;;11.92;37.94;99488.84;4948285;28;20058;-72
2021/04/05 11:44:41;;;;;;;2.78;0.77;;;;;;;12.23;37.35;99484.44;4921370;29;20035;-73
2021/04/05 11:47:08;;;;;;;4.07;0.63;;;;;;;11.89;37.69;99488.81;4950291;28;20170;-72
2021/04/05 11:49:34;;;;;;;4.95;0.95;;;;;;;11.35;39.33;99508.97;4950830;28;20158;-72
2021/04/05 11:52:11;;;;;;;7.20;0.80;;;;;;;11.06;41.85;99512.88;4949268;28;20126;-71
2021/04/05 11:55:07;;;;;;;4.78;0.93;;;;;;;11.28;41.43;99514.41;4948155;28;20078;-73
2021/04/05 11:57:38;;;;;;;3.67;0.80;;;;;;;11.43;41.48;99508.59;4939981;28;20447;-73
2021/04/05 12:00:10;;;;;;;1.33;0.60;;;;;;;11.75;42.48;99520.09;4948596;28;20035;-71
2021/04/05 12:02:54;;;;;;;5.82;0.95;;;;;;;12.02;41.38;99520.38;4948523;28;20130;-72
2021/04/05 12:05:30;;;;;;;1.83;0.50;;;;;;;12.13;39.33;99518.41;4946655;28;20525;-72